MSC Leanne — 3EXH3 — position and weather

sailwx.info

Track history (hours):
 
Tides and Currents Weather Stations Pressure Air Temp Water Temp Dewpoint Dewpoint Depression Visibility Wind Speed Wind Dir Waves Ship Positions

MSC Leanne

Last reported at 2016-Jul-16 13:15 UTC. Time now 2016-Jul-23 09:13 UTC.
Position S 35°05' E 138°04'.

Length 294 m; draft 10.6 m.

Type: Ship (hazmat cat A). MMSI: 357723000.

Date/timePositionNaut miles runAvg speedWind from/ knotsBaromVisibWave heightAir tempDewpointWater temp
2016-Jul-16 13:15S 35°05' E 138°04'913.3
2016-Jul-16 12:33S 34°58' E 138°12'1313.4
2016-Jul-16 11:33S 34°47' E 138°22'6 1.1
2016-Jul-16 06:21S 34°46' E 138°29'0 0.0
2016-Jul-15 23:12S 34°46' E 138°29'0 0.0
2016-Jul-15 22:33S 34°46' E 138°29'21 2.3
2016-Jul-15 13:09S 35°03' E 138°14'4 7.3
2016-Jul-15 12:34S 35°08' E 138°13'19 9.5
2016-Jul-15 10:33S 35°26' E 138°05'26711.4
2016-Jul-14 11:14S 38°39' E 141°55'811.4
2016-Jul-14 10:33S 38°42' E 142°05'1211.6
2016-Jul-14 09:33S 38°46' E 142°19'158 3.5
2016-Jul-12 12:04S 38°59' E 145°41'815.5
2016-Jul-12 11:34S 39°02' E 145°50'1515.2
2016-Jul-12 10:34S 39°10' E 146°07'1414.4
2016-Jul-12 09:34S 39°10' E 146°26'1616.0
2016-Jul-12 08:33S 39°05' E 146°45'1615.9
2016-Jul-12 07:32S 39°00' E 147°05'1616.1
2016-Jul-12 06:33S 38°55' E 147°24'7211.4
2016-Jul-12 00:14S 38°23' E 148°47'1521.6
2016-Jul-11 23:33S 38°15' E 149°03'2120.9
2016-Jul-11 22:34S 38°04' E 149°25'1616.4
2016-Jul-11 21:33S 37°55' E 149°43'1616.0
2016-Jul-11 20:34S 37°47' E 150°00'1615.8
2016-Jul-11 19:34S 37°37' E 150°16'1717.2
2016-Jul-11 18:33S 37°21' E 150°23'1818.1
2016-Jul-11 17:33S 37°04' E 150°30'1817.6
2016-Jul-11 16:33S 36°47' E 150°35'1716.9
2016-Jul-11 15:34S 36°30' E 150°41'1616.2
2016-Jul-11 14:34S 36°15' E 150°47'  
2016-Jul-08 15:32S 36°42' E 150°51'1616.6
2016-Jul-08 14:33S 36°58' E 150°46'1615.7
2016-Jul-08 13:33S 37°13' E 150°41'1615.9
2016-Jul-08 12:33S 37°28' E 150°34'1716.5
2016-Jul-08 11:33S 37°43' E 150°26'1616.4
2016-Jul-08 10:33S 37°56' E 150°13'1716.6
2016-Jul-08 09:33S 38°04' E 149°54'1717.1
2016-Jul-08 08:33S 38°12' E 149°35'1919.5
2016-Jul-08 07:33S 38°21' E 149°13'9518.0
2016-Jul-08 02:18S 39°02' E 147°23'1216.9
2016-Jul-08 01:33S 39°06' E 147°08'1716.9
2016-Jul-08 00:33S 39°12' E 146°48'1717.2
2016-Jul-07 23:33S 39°16' E 146°26'1817.6
2016-Jul-07 22:33S 39°16' E 146°04'1817.7
2016-Jul-07 21:33S 39°15' E 145°41'  
Track history (hours):
 
Tides and Currents Weather Stations Pressure Air Temp Water Temp Dewpoint Dewpoint Depression Visibility Wind Speed Wind Dir Waves Ship Positions

MSC Leanne

Last reported at 2016-Jul-16 13:15 UTC. Time now 2016-Jul-23 09:13 UTC.
Position S 35°05' E 138°04'.

Length 294 m; draft 10.6 m.

Type: Ship (hazmat cat A). MMSI: 357723000.

Date/timePositionNaut miles runAvg speedWind from/ knotsBaromVisibWave heightAir tempDewpointWater temp
2016-Jul-16 13:15S 35°05' E 138°04'913.3
2016-Jul-16 12:33S 34°58' E 138°12'1313.4
2016-Jul-16 11:33S 34°47' E 138°22'6 1.1
2016-Jul-16 06:21S 34°46' E 138°29'0 0.0
2016-Jul-15 23:12S 34°46' E 138°29'0 0.0
2016-Jul-15 22:33S 34°46' E 138°29'21 2.3
2016-Jul-15 13:09S 35°03' E 138°14'4 7.3
2016-Jul-15 12:34S 35°08' E 138°13'19 9.5
2016-Jul-15 10:33S 35°26' E 138°05'26711.4
2016-Jul-14 11:14S 38°39' E 141°55'811.4
2016-Jul-14 10:33S 38°42' E 142°05'1211.6
2016-Jul-14 09:33S 38°46' E 142°19'158 3.5
2016-Jul-12 12:04S 38°59' E 145°41'815.5
2016-Jul-12 11:34S 39°02' E 145°50'1515.2
2016-Jul-12 10:34S 39°10' E 146°07'1414.4
2016-Jul-12 09:34S 39°10' E 146°26'1616.0
2016-Jul-12 08:33S 39°05' E 146°45'1615.9
2016-Jul-12 07:32S 39°00' E 147°05'1616.1
2016-Jul-12 06:33S 38°55' E 147°24'7211.4
2016-Jul-12 00:14S 38°23' E 148°47'1521.6
2016-Jul-11 23:33S 38°15' E 149°03'2120.9
2016-Jul-11 22:34S 38°04' E 149°25'1616.4
2016-Jul-11 21:33S 37°55' E 149°43'1616.0
2016-Jul-11 20:34S 37°47' E 150°00'1615.8
2016-Jul-11 19:34S 37°37' E 150°16'1717.2
2016-Jul-11 18:33S 37°21' E 150°23'1818.1
2016-Jul-11 17:33S 37°04' E 150°30'1817.6
2016-Jul-11 16:33S 36°47' E 150°35'1716.9
2016-Jul-11 15:34S 36°30' E 150°41'1616.2
2016-Jul-11 14:34S 36°15' E 150°47'  
2016-Jul-08 15:32S 36°42' E 150°51'1616.6
2016-Jul-08 14:33S 36°58' E 150°46'1615.7
2016-Jul-08 13:33S 37°13' E 150°41'1615.9
2016-Jul-08 12:33S 37°28' E 150°34'1716.5
2016-Jul-08 11:33S 37°43' E 150°26'1616.4
2016-Jul-08 10:33S 37°56' E 150°13'1716.6
2016-Jul-08 09:33S 38°04' E 149°54'1717.1
2016-Jul-08 08:33S 38°12' E 149°35'1919.5
2016-Jul-08 07:33S 38°21' E 149°13'9518.0
2016-Jul-08 02:18S 39°02' E 147°23'1216.9
2016-Jul-08 01:33S 39°06' E 147°08'1716.9
2016-Jul-08 00:33S 39°12' E 146°48'1717.2
2016-Jul-07 23:33S 39°16' E 146°26'1817.6
2016-Jul-07 22:33S 39°16' E 146°04'1817.7
2016-Jul-07 21:33S 39°15' E 145°41'  

Dump ship's entire track history